TVS7A7 LKPR-GCLP
Flight info
| Callsign | TVS7A7 |
|---|---|
| Flight time | N/A |
| Altitude | 36000 |
| Route | DOBEN DCT RUDAP P31 DOSEL DCT EBEDA DCT BADVI DCT BERAS DCT OLPIX DCT EKPEB DCT OSKOR DCT VOG DCT GEKBA DCT VAMTU DCT KOLON DCT GANGU DCT PADKO DCT DIVKO DCT NILDU DCT NENDA DCT BCN M985 VLC N860 RESTU N851 VJF L82 RUNAX UL82 IBALU UN857 TERTO |
| Aircraft | B38M/M-SDE3FGHIJ1M3RWXYZ/LB1 |
Departure
| Time | 2026-05-06 14:35 |
|---|---|
| Airport | Václav Havel Airport Prague (LKPR) |
Arrival
| Time | N/A |
|---|---|
| Airport | Gran Canaria Airport (GCLP) |
| Time | Latitude | Longitude | Altitude | Speed | Heading |
|---|---|---|---|---|---|
| 2026-05-06 14:01 | 50.10384 | 14.26682 | 1405 ft | 0 kts | 34° |
| 2026-05-06 14:24 | 50.10374 | 14.26672 | 1177 ft | 3 kts | 27° |
| 2026-05-06 14:25 | 50.10356 | 14.26663 | 1181 ft | 3 kts | 355° |
| 2026-05-06 14:25 | 50.10340 | 14.26673 | 1182 ft | 3 kts | 315° |
| 2026-05-06 14:25 | 50.10328 | 14.26697 | 1182 ft | 2 kts | 304° |
| 2026-05-06 14:25 | 50.10323 | 14.26708 | 1182 ft | 1 kts | 304° |
| 2026-05-06 14:26 | 50.10322 | 14.26709 | 1182 ft | 0 kts | 304° |
| 2026-05-06 14:28 | 50.10330 | 14.26692 | 1182 ft | 7 kts | 304° |
| 2026-05-06 14:29 | 50.10371 | 14.26598 | 1182 ft | 12 kts | 304° |
| 2026-05-06 14:29 | 50.10430 | 14.26485 | 1177 ft | 15 kts | 309° |
| 2026-05-06 14:29 | 50.10494 | 14.26337 | 1180 ft | 17 kts | 304° |
| 2026-05-06 14:29 | 50.10540 | 14.26168 | 1179 ft | 18 kts | 266° |
| 2026-05-06 14:30 | 50.10513 | 14.26017 | 1186 ft | 9 kts | 219° |
| 2026-05-06 14:30 | 50.10472 | 14.26036 | 1188 ft | 6 kts | 127° |
| 2026-05-06 14:30 | 50.10438 | 14.26107 | 1189 ft | 11 kts | 127° |
| 2026-05-06 14:30 | 50.10380 | 14.26228 | 1191 ft | 17 kts | 127° |
| 2026-05-06 14:31 | 50.10300 | 14.26391 | 1194 ft | 20 kts | 127° |
| 2026-05-06 14:31 | 50.10218 | 14.26559 | 1198 ft | 19 kts | 127° |
| 2026-05-06 14:31 | 50.10141 | 14.26717 | 1200 ft | 18 kts | 128° |
| 2026-05-06 14:31 | 50.10069 | 14.26864 | 1203 ft | 16 kts | 127° |
| 2026-05-06 14:32 | 50.10004 | 14.27001 | 1206 ft | 15 kts | 126° |
| 2026-05-06 14:32 | 50.09940 | 14.27136 | 1208 ft | 16 kts | 127° |
| 2026-05-06 14:32 | 50.09867 | 14.27289 | 1207 ft | 19 kts | 128° |
| 2026-05-06 14:32 | 50.09773 | 14.27447 | 1208 ft | 21 kts | 135° |
| 2026-05-06 14:33 | 50.09666 | 14.27608 | 1209 ft | 22 kts | 137° |
| 2026-05-06 14:33 | 50.09574 | 14.27617 | 1212 ft | 11 kts | 211° |
| 2026-05-06 14:33 | 50.09515 | 14.27556 | 1215 ft | 9 kts | 215° |
| 2026-05-06 14:33 | 50.09473 | 14.27509 | 1218 ft | 6 kts | 216° |
| 2026-05-06 14:34 | 50.09431 | 14.27460 | 1220 ft | 11 kts | 224° |
| 2026-05-06 14:34 | 50.09461 | 14.27313 | 1219 ft | 35 kts | 306° |
| 2026-05-06 14:34 | 50.09770 | 14.26669 | 1216 ft | 111 kts | 307° |
| 2026-05-06 14:34 | 50.10372 | 14.25411 | 1189 ft | 175 kts | 304° |
| 2026-05-06 14:35 | 50.11173 | 14.23801 | 1715 ft | 195 kts | 306° |
| 2026-05-06 14:35 | 50.12022 | 14.22039 | 2443 ft | 214 kts | 305° |
| 2026-05-06 14:35 | 50.12949 | 14.20099 | 3065 ft | 231 kts | 305° |
| 2026-05-06 14:35 | 50.13942 | 14.18029 | 3651 ft | 245 kts | 305° |
| 2026-05-06 14:36 | 50.14989 | 14.15850 | 4273 ft | 256 kts | 304° |
| 2026-05-06 14:36 | 50.16070 | 14.13604 | 4878 ft | 261 kts | 305° |
| 2026-05-06 14:36 | 50.17164 | 14.11312 | 5482 ft | 264 kts | 302° |
| 2026-05-06 14:36 | 50.17851 | 14.08709 | 6069 ft | 260 kts | 276° |
| 2026-05-06 14:37 | 50.17742 | 14.05939 | 6642 ft | 256 kts | 251° |
| 2026-05-06 14:37 | 50.16916 | 14.03502 | 7214 ft | 256 kts | 229° |
| 2026-05-06 14:37 | 50.15617 | 14.01600 | 7793 ft | 258 kts | 219° |
| 2026-05-06 14:37 | 50.14222 | 13.99823 | 8290 ft | 261 kts | 218° |
| 2026-05-06 14:38 | 50.12755 | 13.98028 | 8881 ft | 276 kts | 217° |
| 2026-05-06 14:38 | 50.11202 | 13.96127 | 9464 ft | 292 kts | 217° |
| 2026-05-06 14:38 | 50.09561 | 13.94139 | 10007 ft | 306 kts | 217° |
| 2026-05-06 14:38 | 50.07838 | 13.92071 | 10549 ft | 319 kts | 217° |
| 2026-05-06 14:39 | 50.06043 | 13.89931 | 11097 ft | 331 kts | 217° |
| 2026-05-06 14:39 | 50.04184 | 13.87724 | 11666 ft | 341 kts | 217° |
| 2026-05-06 14:39 | 50.02273 | 13.85461 | 12223 ft | 350 kts | 217° |
| 2026-05-06 14:39 | 50.00312 | 13.83141 | 12788 ft | 358 kts | 217° |
| 2026-05-06 14:40 | 49.98312 | 13.80779 | 13386 ft | 364 kts | 218° |
| 2026-05-06 14:40 | 49.96280 | 13.78382 | 13934 ft | 370 kts | 217° |
| 2026-05-06 14:40 | 49.94218 | 13.75952 | 14472 ft | 373 kts | 217° |
| 2026-05-06 14:40 | 49.92146 | 13.73513 | 15014 ft | 375 kts | 217° |
| 2026-05-06 14:41 | 49.90059 | 13.71058 | 15568 ft | 377 kts | 217° |
| 2026-05-06 14:41 | 49.87960 | 13.68593 | 16152 ft | 380 kts | 217° |
| 2026-05-06 14:41 | 49.85850 | 13.66119 | 16705 ft | 381 kts | 217° |
| 2026-05-06 14:41 | 49.83726 | 13.63630 | 17286 ft | 384 kts | 217° |
| 2026-05-06 14:42 | 49.81588 | 13.61127 | 17875 ft | 386 kts | 217° |
| 2026-05-06 14:42 | 49.79440 | 13.58613 | 18408 ft | 388 kts | 217° |
| 2026-05-06 14:42 | 49.77211 | 13.56258 | 18925 ft | 390 kts | 207° |
| 2026-05-06 14:42 | 49.74681 | 13.54734 | 19453 ft | 391 kts | 202° |
| 2026-05-06 14:43 | 49.72125 | 13.53256 | 19999 ft | 392 kts | 202° |
| 2026-05-06 14:43 | 49.69563 | 13.51800 | 20546 ft | 393 kts | 201° |
| 2026-05-06 14:43 | 49.66991 | 13.50351 | 21100 ft | 394 kts | 201° |
| 2026-05-06 14:43 | 49.64419 | 13.48908 | 21668 ft | 393 kts | 201° |
| 2026-05-06 14:44 | 49.61847 | 13.47469 | 22244 ft | 393 kts | 201° |
| 2026-05-06 14:44 | 49.59281 | 13.46036 | 22841 ft | 392 kts | 201° |
| 2026-05-06 14:44 | 49.56717 | 13.44605 | 23415 ft | 391 kts | 201° |
| 2026-05-06 14:45 | 49.51614 | 13.41762 | 24420 ft | 389 kts | 201° |
| 2026-05-06 14:45 | 49.49073 | 13.40348 | 24940 ft | 387 kts | 202° |
| 2026-05-06 14:45 | 49.46548 | 13.38945 | 25458 ft | 385 kts | 202° |
| 2026-05-06 14:45 | 49.44033 | 13.37550 | 26001 ft | 383 kts | 202° |
| 2026-05-06 14:46 | 49.41539 | 13.36168 | 26541 ft | 380 kts | 202° |
| 2026-05-06 14:46 | 49.39049 | 13.34789 | 26921 ft | 382 kts | 202° |
| 2026-05-06 14:46 | 49.36542 | 13.33403 | 27301 ft | 383 kts | 202° |
| 2026-05-06 14:46 | 49.34032 | 13.32016 | 27670 ft | 384 kts | 202° |
| 2026-05-06 14:47 | 49.31510 | 13.30624 | 28008 ft | 387 kts | 202° |
| 2026-05-06 14:47 | 49.28967 | 13.29223 | 28289 ft | 389 kts | 202° |
| 2026-05-06 14:47 | 49.26412 | 13.27815 | 28589 ft | 392 kts | 202° |
| 2026-05-06 14:47 | 49.23898 | 13.26344 | 28872 ft | 392 kts | 208° |
| 2026-05-06 14:48 | 49.21460 | 13.24466 | 29178 ft | 393 kts | 208° |
| 2026-05-06 14:48 | 49.19000 | 13.22621 | 29481 ft | 395 kts | 208° |
| 2026-05-06 14:48 | 49.16516 | 13.20786 | 29784 ft | 397 kts | 208° |
| 2026-05-06 14:48 | 49.14019 | 13.18955 | 30055 ft | 399 kts | 208° |
| 2026-05-06 14:49 | 49.11516 | 13.17101 | 30306 ft | 401 kts | 208° |
| 2026-05-06 14:49 | 49.09008 | 13.15224 | 30545 ft | 401 kts | 209° |
| 2026-05-06 14:49 | 49.06499 | 13.13353 | 30827 ft | 402 kts | 208° |
| 2026-05-06 14:49 | 49.03981 | 13.11477 | 31085 ft | 404 kts | 208° |
| 2026-05-06 14:50 | 49.01452 | 13.09597 | 31354 ft | 405 kts | 208° |
| 2026-05-06 14:50 | 48.98912 | 13.07710 | 31608 ft | 406 kts | 209° |
| 2026-05-06 14:50 | 48.96376 | 13.05830 | 31883 ft | 406 kts | 208° |
| 2026-05-06 14:50 | 48.93832 | 13.03944 | 32155 ft | 406 kts | 208° |
| 2026-05-06 14:51 | 48.91295 | 13.02066 | 32430 ft | 405 kts | 208° |
| 2026-05-06 14:51 | 48.88763 | 13.00194 | 32708 ft | 404 kts | 208° |
| 2026-05-06 14:51 | 48.86231 | 12.98324 | 32990 ft | 403 kts | 209° |
| 2026-05-06 14:51 | 48.83714 | 12.96467 | 33269 ft | 402 kts | 209° |
| 2026-05-06 14:52 | 48.81204 | 12.94617 | 33552 ft | 401 kts | 209° |
| 2026-05-06 14:52 | 48.78700 | 12.92774 | 33820 ft | 399 kts | 209° |
| 2026-05-06 14:52 | 48.76203 | 12.90939 | 34062 ft | 399 kts | 208° |
| 2026-05-06 14:52 | 48.73735 | 12.89024 | 34298 ft | 396 kts | 216° |
| 2026-05-06 14:53 | 48.71634 | 12.86367 | 34533 ft | 393 kts | 223° |
| 2026-05-06 14:53 | 48.69596 | 12.83605 | 34787 ft | 393 kts | 222° |
| 2026-05-06 14:53 | 48.67567 | 12.80847 | 35034 ft | 392 kts | 223° |
| 2026-05-06 14:53 | 48.65553 | 12.78083 | 35286 ft | 391 kts | 223° |
| 2026-05-06 14:54 | 48.63549 | 12.75320 | 35538 ft | 389 kts | 223° |
| 2026-05-06 14:54 | 48.61554 | 12.72564 | 35722 ft | 389 kts | 223° |
| 2026-05-06 14:54 | 48.59553 | 12.69789 | 35736 ft | 392 kts | 223° |
| 2026-05-06 14:55 | 48.55503 | 12.64168 | 35727 ft | 398 kts | 223° |
| 2026-05-06 14:55 | 48.51387 | 12.58469 | 35727 ft | 404 kts | 223° |
| 2026-05-06 14:56 | 48.47252 | 12.52758 | 35726 ft | 403 kts | 223° |
| 2026-05-06 14:56 | 48.43065 | 12.47123 | 35726 ft | 404 kts | 220° |
| 2026-05-06 14:57 | 48.38775 | 12.41652 | 35725 ft | 404 kts | 221° |
| 2026-05-06 14:57 | 48.34496 | 12.36178 | 35726 ft | 404 kts | 221° |
| 2026-05-06 14:58 | 48.30207 | 12.30703 | 35722 ft | 404 kts | 220° |
| 2026-05-06 14:58 | 48.25921 | 12.25242 | 35732 ft | 404 kts | 220° |
| 2026-05-06 14:59 | 48.21629 | 12.19787 | 35728 ft | 404 kts | 220° |
| 2026-05-06 14:59 | 48.17317 | 12.14369 | 35729 ft | 405 kts | 216° |
| 2026-05-06 14:59 | 48.14830 | 12.12423 | 35715 ft | 406 kts | 201° |
| 2026-05-06 15:00 | 48.12122 | 12.11181 | 35726 ft | 408 kts | 200° |
| 2026-05-06 15:00 | 48.07591 | 12.09140 | 35717 ft | 409 kts | 199° |
| 2026-05-06 15:01 | 48.02125 | 12.06780 | 35711 ft | 408 kts | 199° |
| 2026-05-06 15:01 | 47.95776 | 12.04083 | 35710 ft | 408 kts | 199° |
| 2026-05-06 15:02 | 47.91210 | 12.02151 | 35706 ft | 407 kts | 199° |
| 2026-05-06 15:02 | 47.85760 | 11.99849 | 35706 ft | 407 kts | 199° |
| 2026-05-06 15:03 | 47.80318 | 11.97557 | 35708 ft | 406 kts | 199° |
| 2026-05-06 15:03 | 47.74887 | 11.95273 | 35710 ft | 405 kts | 199° |
| 2026-05-06 15:04 | 47.69518 | 11.92759 | 35706 ft | 404 kts | 201° |
| 2026-05-06 15:04 | 47.64164 | 11.90219 | 35708 ft | 404 kts | 201° |
| 2026-05-06 15:05 | 47.58844 | 11.87708 | 35704 ft | 404 kts | 201° |
| 2026-05-06 15:05 | 47.53438 | 11.85162 | 35732 ft | 405 kts | 201° |